Time;durP1;ratioP1;P1;durP2;ratioP2;P2;SDS_P1;SDS_P2;PMS_P1;PMS_P2;Temp;Humidity;BMP_temperature;BMP_pressure;BME280_temperature;BME280_humidity;BME280_pressure;Samples;Min_cycle;Max_cycle;Signal;HPM_P1;HPM_P2
2022/07/04 00:00:08;;;;;;;3.20;2.45;;;23.60;99.90;;;;;;5011447;28;20614;-75
2022/07/04 00:02:33;;;;;;;2.83;2.25;;;23.70;99.90;;;;;;5010828;28;20237;-74
2022/07/04 00:04:59;;;;;;;2.55;2.22;;;23.60;99.90;;;;;;5011266;28;20236;-74
2022/07/04 00:07:25;;;;;;;2.58;2.28;;;23.50;99.90;;;;;;5010942;28;20208;-74
2022/07/04 00:09:50;;;;;;;2.30;2.08;;;23.60;99.90;;;;;;5009809;28;20169;-74
2022/07/04 00:12:16;;;;;;;2.45;2.17;;;23.40;99.90;;;;;;5011515;28;20185;-74
2022/07/04 00:14:42;;;;;;;2.58;1.98;;;23.40;99.90;;;;;;5011154;28;20237;-75
2022/07/04 00:17:07;;;;;;;3.28;2.35;;;23.30;99.90;;;;;;5009902;28;20205;-75
2022/07/04 00:19:33;;;;;;;2.55;2.03;;;23.30;99.90;;;;;;5010674;28;20223;-74
2022/07/04 00:21:58;;;;;;;3.47;2.38;;;23.10;99.90;;;;;;5009634;28;20243;-75
2022/07/04 00:24:24;;;;;;;3.47;2.38;;;23.10;99.90;;;;;;5025324;23;20709;-68
2022/07/04 00:26:50;;;;;;;2.20;1.75;;;23.10;99.90;;;;;;5010617;28;20717;-67
2022/07/04 00:29:15;;;;;;;3.55;2.30;;;23.00;99.90;;;;;;5010194;28;20205;-67
2022/07/04 00:31:41;;;;;;;3.67;2.33;;;23.00;99.90;;;;;;5010635;28;20217;-68
2022/07/04 00:34:07;;;;;;;4.72;2.90;;;22.90;99.90;;;;;;5010446;28;20228;-68
2022/07/04 00:36:32;;;;;;;6.40;2.90;;;22.90;99.90;;;;;;5010540;28;20889;-67
2022/07/04 00:38:58;;;;;;;6.85;2.92;;;22.80;99.90;;;;;;5010857;28;20195;-67
2022/07/04 00:41:24;;;;;;;4.68;3.08;;;22.70;99.90;;;;;;5010554;28;20228;-68
2022/07/04 00:44:05;;;;;;;5.53;2.58;;;22.70;99.90;;;;;;5010746;28;20267;-69
2022/07/04 00:46:31;;;;;;;2.53;2.33;;;22.60;99.90;;;;;;5009263;28;20606;-67
2022/07/04 00:48:57;;;;;;;4.32;2.80;;;22.50;99.90;;;;;;5009466;28;20209;-68
2022/07/04 00:51:24;;;;;;;6.45;3.45;;;22.50;99.90;;;;;;5010844;28;20193;-68
2022/07/04 00:53:52;;;;;;;6.13;3.17;;;22.50;99.90;;;;;;5014327;28;20217;-68
2022/07/04 00:56:17;;;;;;;6.07;3.10;;;22.50;99.90;;;;;;5014425;28;20212;-68
2022/07/04 00:58:43;;;;;;;5.93;2.95;;;22.50;99.90;;;;;;5013889;28;20249;-68
2022/07/04 01:01:09;;;;;;;4.40;3.03;;;22.50;99.90;;;;;;5014030;28;20205;-68
2022/07/04 01:03:34;;;;;;;3.42;2.30;;;22.50;99.90;;;;;;5012845;28;20650;-66
2022/07/04 01:06:00;;;;;;;2.92;2.50;;;22.50;99.90;;;;;;5013243;28;20173;-68
2022/07/04 01:08:26;;;;;;;2.70;2.47;;;22.40;99.90;;;;;;5013463;28;20212;-68
2022/07/04 01:10:52;;;;;;;3.70;2.58;;;22.50;99.90;;;;;;5014134;28;20209;-68
2022/07/04 01:13:22;;;;;;;2.83;2.63;;;22.50;99.90;;;;;;5012641;28;20216;-68
2022/07/04 01:15:48;;;;;;;5.20;2.55;;;22.60;99.90;;;;;;5013777;28;20239;-68
2022/07/04 01:18:14;;;;;;;7.05;2.90;;;22.50;99.90;;;;;;5041429;28;20280;-69
2022/07/04 01:20:39;;;;;;;3.70;2.47;;;22.40;99.90;;;;;;5012395;28;20216;-68
2022/07/04 01:23:05;;;;;;;3.53;2.38;;;22.40;99.90;;;;;;5039919;28;20275;-69
2022/07/04 01:25:32;;;;;;;2.53;2.33;;;22.30;99.90;;;;;;5013314;28;20668;-68
2022/07/04 01:28:00;;;;;;;2.78;2.50;;;22.20;99.90;;;;;;5013698;28;20209;-68
2022/07/04 01:30:27;;;;;;;3.70;2.17;;;22.10;99.90;;;;;;5013810;28;20268;-68
2022/07/04 01:32:53;;;;;;;5.22;2.67;;;22.10;99.90;;;;;;5013516;28;20208;-69
2022/07/04 01:35:19;;;;;;;2.80;2.25;;;22.00;99.90;;;;;;5013410;28;20724;-68
2022/07/04 01:37:45;;;;;;;6.30;2.58;;;21.90;99.90;;;;;;5012004;28;20211;-68
2022/07/04 01:40:12;;;;;;;3.75;2.63;;;21.90;99.90;;;;;;5013351;28;20205;-68
2022/07/04 01:42:38;;;;;;;3.75;2.70;;;21.90;99.90;;;;;;5013153;28;20251;-68
2022/07/04 01:45:04;;;;;;;3.20;2.90;;;21.80;99.90;;;;;;5013734;28;20209;-69
2022/07/04 01:47:30;;;;;;;5.18;3.78;;;21.80;99.90;;;;;;5013238;28;20205;-69
2022/07/04 01:49:56;;;;;;;3.28;3.00;;;21.70;99.90;;;;;;5013096;28;20215;-69
2022/07/04 01:52:21;;;;;;;3.83;3.47;;;21.60;99.90;;;;;;5011813;28;20201;-67
2022/07/04 01:54:47;;;;;;;3.50;3.20;;;21.60;99.90;;;;;;5013144;28;20223;-68
2022/07/04 01:57:12;;;;;;;4.15;3.35;;;21.50;99.90;;;;;;5013497;28;20187;-69
2022/07/04 02:02:23;;;;;;;4.07;3.67;;;21.50;99.90;;;;;;5013056;28;20275;-68
2022/07/04 02:04:49;;;;;;;3.58;3.20;;;21.40;99.90;;;;;;5011936;28;20693;-68
2022/07/04 02:07:15;;;;;;;3.92;3.53;;;21.40;99.90;;;;;;5012924;28;20702;-68
2022/07/04 02:09:40;;;;;;;5.10;3.58;;;21.30;99.90;;;;;;5012572;28;20228;-68
2022/07/04 02:14:50;;;;;;;4.05;3.55;;;21.20;99.90;;;;;;5012883;28;20223;-68
2022/07/04 02:17:15;;;;;;;5.10;3.85;;;21.20;99.90;;;;;;5012905;28;20213;-69
2022/07/04 02:19:41;;;;;;;5.45;4.03;;;21.10;99.90;;;;;;5012236;28;20201;-68
2022/07/04 02:22:07;;;;;;;4.25;3.85;;;21.00;99.90;;;;;;5012454;28;20212;-68
2022/07/04 02:24:32;;;;;;;4.32;3.95;;;20.90;99.90;;;;;;5012136;28;20307;-68
2022/07/04 02:26:58;;;;;;;5.10;4.60;;;20.90;99.90;;;;;;5013359;28;20272;-71
2022/07/04 02:29:24;;;;;;;4.80;4.30;;;20.90;99.90;;;;;;5010720;28;20217;-71
2022/07/04 02:31:49;;;;;;;4.82;4.40;;;20.90;99.90;;;;;;5012506;28;20205;-71
2022/07/04 02:34:15;;;;;;;6.55;4.45;;;20.90;99.90;;;;;;5012522;28;20224;-70
2022/07/04 02:36:40;;;;;;;5.47;4.78;;;20.90;99.90;;;;;;5008706;28;20204;-70
2022/07/04 02:39:06;;;;;;;5.00;4.50;;;20.90;99.90;;;;;;5012774;28;20264;-70
2022/07/04 02:41:33;;;;;;;5.97;4.53;;;20.90;99.90;;;;;;5011967;28;20585;-71
2022/07/04 02:43:59;;;;;;;6.25;4.63;;;21.00;99.90;;;;;;5010836;28;20216;-70
2022/07/04 02:46:25;;;;;;;5.60;5.07;;;20.90;99.90;;;;;;5011842;28;20205;-71
2022/07/04 02:48:50;;;;;;;5.30;4.80;;;20.80;99.90;;;;;;5010758;28;20263;-71
2022/07/04 02:51:16;;;;;;;6.07;5.47;;;20.80;99.90;;;;;;5012740;28;20260;-71
2022/07/04 02:53:41;;;;;;;6.35;4.82;;;20.70;99.90;;;;;;5010660;28;20197;-70
2022/07/04 02:56:07;;;;;;;7.18;5.00;;;20.70;99.90;;;;;;5011968;28;20209;-70
2022/07/04 02:58:33;;;;;;;7.03;5.40;;;20.70;99.90;;;;;;5010157;28;20212;-70
2022/07/04 03:00:59;;;;;;;8.07;4.72;;;20.70;99.90;;;;;;5011934;28;20296;-70
2022/07/04 03:03:24;;;;;;;7.22;5.47;;;20.70;99.90;;;;;;5012417;28;20276;-70
2022/07/04 03:05:51;;;;;;;6.38;5.65;;;20.60;99.90;;;;;;5012007;28;20683;-71
2022/07/04 03:08:16;;;;;;;6.43;5.80;;;20.60;99.90;;;;;;5010007;28;20217;-70
2022/07/04 03:10:42;;;;;;;6.78;5.85;;;20.60;99.90;;;;;;5011867;28;20209;-69
2022/07/04 03:13:07;;;;;;;5.85;5.35;;;20.60;99.90;;;;;;5011651;28;20232;-70
2022/07/04 03:15:33;;;;;;;5.80;5.22;;;20.60;99.90;;;;;;5011588;28;20255;-70
2022/07/04 03:17:59;;;;;;;6.07;5.47;;;20.60;99.90;;;;;;5010674;28;20187;-70
2022/07/04 03:20:24;;;;;;;10.68;6.22;;;20.70;99.90;;;;;;5011169;28;20225;-70
2022/07/04 03:22:51;;;;;;;6.75;5.75;;;20.70;99.90;;;;;;5011630;28;20236;-70
2022/07/04 03:25:17;;;;;;;5.15;4.65;;;20.80;99.90;;;;;;5011226;28;20660;-71
2022/07/04 03:27:42;;;;;;;6.05;5.43;;;20.90;99.90;;;;;;5011120;28;20264;-69
2022/07/04 03:30:08;;;;;;;6.13;5.00;;;21.00;99.90;;;;;;5011905;28;20232;-70
2022/07/04 03:32:34;;;;;;;8.15;5.53;;;21.00;99.90;;;;;;5010999;28;20328;-70
2022/07/04 03:34:59;;;;;;;5.75;5.13;;;21.10;99.90;;;;;;5011531;28;20212;-70
2022/07/04 03:37:25;;;;;;;5.57;5.07;;;21.60;99.90;;;;;;5009595;28;20621;-70
2022/07/04 03:39:51;;;;;;;8.00;4.88;;;21.60;99.90;;;;;;5009778;28;20575;-70
2022/07/04 03:42:16;;;;;;;5.18;4.78;;;22.20;99.90;;;;;;5011654;28;20205;-71
2022/07/04 03:44:42;;;;;;;6.88;5.63;;;22.30;99.90;;;;;;5011104;28;20205;-71
2022/07/04 03:47:07;;;;;;;6.50;5.53;;;22.30;99.90;;;;;;5011410;28;20288;-71
2022/07/04 03:49:33;;;;;;;6.45;5.65;;;22.80;99.90;;;;;;5010957;28;20292;-71
2022/07/04 03:51:58;;;;;;;5.75;5.35;;;22.90;99.90;;;;;;5010356;28;20205;-71
2022/07/04 03:54:28;;;;;;;6.15;5.20;;;23.60;99.90;;;;;;5011424;28;20276;-71
2022/07/04 03:56:53;;;;;;;5.90;5.30;;;24.50;99.90;;;;;;5011200;28;20209;-70
2022/07/04 03:59:19;;;;;;;7.68;5.30;;;24.70;99.90;;;;;;5010839;28;20755;-71
2022/07/04 04:01:45;;;;;;;5.75;5.07;;;24.10;99.90;;;;;;5009581;28;20565;-71
2022/07/04 04:06:55;;;;;;;6.25;5.65;;;23.60;99.90;;;;;;5002966;28;20215;-71
2022/07/04 04:09:21;;;;;;;6.53;5.93;;;23.20;99.90;;;;;;5011176;28;20177;-71
2022/07/04 04:11:46;;;;;;;5.72;5.22;;;23.50;99.90;;;;;;5003135;28;20212;-70
2022/07/04 04:14:12;;;;;;;6.30;5.70;;;24.20;99.90;;;;;;5011168;28;20212;-70
2022/07/04 04:16:38;;;;;;;7.47;5.20;;;25.30;99.90;;;;;;5010676;28;20262;-70
2022/07/04 04:19:04;;;;;;;5.95;5.35;;;26.20;99.90;;;;;;5011021;28;20267;-71
2022/07/04 04:21:30;;;;;;;7.82;5.35;;;26.90;99.90;;;;;;5011050;28;20795;-71
2022/07/04 04:23:55;;;;;;;7.00;4.80;;;27.70;99.90;;;;;;5010598;28;20705;-71
2022/07/04 04:26:21;;;;;;;5.30;4.80;;;28.30;99.90;;;;;;5010703;28;20599;-68
2022/07/04 04:28:47;;;;;;;6.07;4.40;;;28.80;99.90;;;;;;5014331;28;20221;-71
2022/07/04 04:31:14;;;;;;;4.50;3.55;;;28.90;99.90;;;;;;5014785;28;20613;-71
2022/07/04 04:33:40;;;;;;;5.20;4.70;;;29.80;99.90;;;;;;5014326;28;20173;-71
2022/07/04 04:36:06;;;;;;;6.05;4.22;;;30.00;99.90;;;;;;5013814;28;20181;-71
2022/07/04 04:38:32;;;;;;;4.80;4.28;;;30.60;99.90;;;;;;5012677;28;20299;-71
2022/07/04 04:40:57;;;;;;;5.93;3.70;;;29.20;99.90;;;;;;5014629;28;20201;-71
2022/07/04 04:43:23;;;;;;;4.18;3.78;;;29.70;99.90;;;;;;5012943;28;20704;-70
2022/07/04 04:45:48;;;;;;;4.95;3.85;;;29.60;99.90;;;;;;5013529;28;20201;-71
2022/07/04 04:48:14;;;;;;;4.70;3.90;;;29.00;99.90;;;;;;5014534;28;20177;-70
2022/07/04 04:50:40;;;;;;;4.78;4.10;;;28.60;99.90;;;;;;5014157;28;20205;-71
2022/07/04 04:53:05;;;;;;;5.38;3.90;;;28.20;99.90;;;;;;5014142;28;20304;-71
2022/07/04 04:55:31;;;;;;;5.93;4.22;;;28.70;99.90;;;;;;5014119;28;20209;-71
2022/07/04 04:57:57;;;;;;;4.00;3.70;;;28.20;99.90;;;;;;5014290;28;20221;-70
2022/07/04 05:00:23;;;;;;;4.50;3.83;;;27.80;99.90;;;;;;5014467;28;20249;-71
2022/07/04 05:02:48;;;;;;;6.03;3.38;;;27.80;99.90;;;;;;5014108;28;20213;-71
2022/07/04 05:05:14;;;;;;;3.92;3.60;;;27.30;99.90;;;;;;5014201;28;20219;-70
2022/07/04 05:07:39;;;;;;;5.40;3.45;;;26.80;99.90;;;;;;5013910;28;20220;-70
2022/07/04 05:10:06;;;;;;;4.93;3.40;;;27.00;99.90;;;;;;5013832;28;20220;-71
2022/07/04 05:12:32;;;;;;;5.80;3.35;;;27.70;99.90;;;;;;5014090;28;20262;-71
2022/07/04 05:14:57;;;;;;;4.90;3.25;;;27.10;99.90;;;;;;5014295;28;20642;-70
2022/07/04 05:17:23;;;;;;;4.80;3.30;;;27.50;99.90;;;;;;5013975;28;20292;-70
2022/07/04 05:19:49;;;;;;;5.45;3.15;;;26.60;99.90;;;;;;5013510;28;20279;-70
2022/07/04 05:22:14;;;;;;;2.85;2.60;;;27.00;99.90;;;;;;5013744;28;20239;-71
2022/07/04 05:24:40;;;;;;;2.75;2.55;;;27.10;99.90;;;;;;5013320;28;20228;-70
2022/07/04 05:27:06;;;;;;;3.20;2.53;;;26.70;99.90;;;;;;5014184;28;20252;-70
2022/07/04 05:29:32;;;;;;;4.55;2.80;;;26.20;99.90;;;;;;5013357;28;20212;-71
2022/07/04 05:31:58;;;;;;;5.07;3.15;;;25.40;99.90;;;;;;5013224;28;20582;-71
2022/07/04 05:34:24;;;;;;;4.05;2.58;;;24.60;99.90;;;;;;5013344;28;20212;-70
2022/07/04 05:36:49;;;;;;;2.90;2.60;;;24.30;99.90;;;;;;5013460;28;20177;-70
2022/07/04 05:39:15;;;;;;;4.05;2.70;;;25.00;99.90;;;;;;5013902;28;20181;-71
2022/07/04 05:41:41;;;;;;;3.20;2.22;;;26.60;99.90;;;;;;5012026;28;20212;-71
2022/07/04 05:44:07;;;;;;;5.13;2.53;;;28.00;99.90;;;;;;5013476;28;20773;-71
2022/07/04 05:46:33;;;;;;;2.78;2.50;;;29.80;99.90;;;;;;5012652;28;20220;-71
2022/07/04 05:48:58;;;;;;;2.00;1.88;;;30.80;99.90;;;;;;5013163;28;20678;-71
2022/07/04 05:51:24;;;;;;;2.25;2.05;;;31.50;99.90;;;;;;5012488;28;20242;-72
2022/07/04 05:53:50;;;;;;;3.75;1.90;;;31.80;99.90;;;;;;5012884;28;20213;-71
2022/07/04 05:56:15;;;;;;;4.60;1.95;;;31.10;99.90;;;;;;5015015;28;20299;-71
2022/07/04 05:58:41;;;;;;;2.40;1.70;;;30.90;99.90;;;;;;5012283;28;20291;-71
2022/07/04 06:01:07;;;;;;;3.25;1.58;;;30.60;99.90;;;;;;5011749;28;20259;-71
2022/07/04 06:03:36;;;;;;;1.98;1.67;;;31.20;99.90;;;;;;5012294;28;20247;-72
2022/07/04 06:06:02;;;;;;;4.50;2.13;;;31.70;99.90;;;;;;5013400;28;20227;-71
2022/07/04 06:08:28;;;;;;;2.03;1.55;;;32.40;99.90;;;;;;5012098;28;20224;-71
2022/07/04 06:10:53;;;;;;;2.72;1.67;;;33.20;99.90;;;;;;5013426;28;20756;-71
2022/07/04 06:13:19;;;;;;;3.00;1.50;;;33.40;99.90;;;;;;5012878;28;20258;-72
2022/07/04 06:15:45;;;;;;;2.30;1.48;;;33.80;99.90;;;;;;5011882;28;20287;-71
2022/07/04 06:18:11;;;;;;;1.77;1.67;;;33.90;99.90;;;;;;5012905;28;20176;-71
2022/07/04 06:20:39;;;;;;;2.08;1.30;;;33.60;99.90;;;;;;5011640;28;20701;-72
2022/07/04 06:23:05;;;;;;;3.33;1.33;;;33.10;99.90;;;;;;5012239;28;20224;-72
2022/07/04 06:25:32;;;;;;;2.40;1.40;;;33.70;99.90;;;;;;5011688;28;20311;-74
2022/07/04 06:27:58;;;;;;;1.23;1.13;;;34.20;97.90;;;;;;5011993;28;20246;-72
2022/07/04 06:30:23;;;;;;;1.23;1.00;;;34.70;96.90;;;;;;5012540;28;20200;-71
2022/07/04 06:32:51;;;;;;;2.45;1.25;;;34.10;96.70;;;;;;5023737;23;20729;-76
2022/07/04 06:38:07;;;;;;;2.17;1.10;;;35.00;94.80;;;;;;5011006;28;20216;-73
2022/07/04 06:40:34;;;;;;;1.85;1.45;;;35.20;94.00;;;;;;5005616;28;20244;-79
2022/07/04 06:43:00;;;;;;;2.33;1.10;;;35.20;92.60;;;;;;5006853;28;20709;-76
2022/07/04 06:45:25;;;;;;;1.20;1.10;;;34.80;93.10;;;;;;5014621;28;20188;-77
2022/07/04 06:47:51;;;;;;;1.27;1.10;;;35.00;92.70;;;;;;5013983;28;20701;-75
2022/07/04 06:50:17;;;;;;;2.17;1.50;;;34.10;92.10;;;;;;5009860;28;20216;-76
2022/07/04 06:52:43;;;;;;;3.83;1.20;;;34.50;92.10;;;;;;5021442;28;20697;-77
2022/07/04 06:55:09;;;;;;;1.33;1.23;;;34.50;92.10;;;;;;5020825;28;20213;-78
2022/07/04 06:57:35;;;;;;;3.30;1.20;;;34.50;91.60;;;;;;5021395;28;20211;-79
2022/07/04 07:00:02;;;;;;;2.60;1.40;;;34.50;91.60;;;;;;5018690;28;20204;-77
2022/07/04 07:02:28;;;;;;;1.17;0.98;;;34.50;91.80;;;;;;5013691;28;20865;-76
2022/07/04 07:04:57;;;;;;;1.10;1.00;;;34.70;90.50;;;;;;5018645;28;20254;-77
2022/07/04 07:07:27;;;;;;;3.92;1.35;;;34.30;90.40;;;;;;5019679;28;20231;-77
2022/07/04 07:09:53;;;;;;;2.45;0.82;;;35.00;90.50;;;;;;5015640;28;20219;-76
2022/07/04 07:12:19;;;;;;;4.28;1.27;;;35.50;88.80;;;;;;5015258;28;20307;-77
2022/07/04 07:14:45;;;;;;;5.70;1.30;;;36.40;86.60;;;;;;5016985;28;20208;-76
2022/07/04 07:17:11;;;;;;;3.03;1.15;;;36.50;86.20;;;;;;5016227;28;20216;-77
2022/07/04 07:19:36;;;;;;;1.77;0.98;;;36.30;84.80;;;;;;5014756;28;20211;-79
2022/07/04 07:22:02;;;;;;;1.15;1.05;;;36.10;85.00;;;;;;5019145;28;20224;-78
2022/07/04 07:24:30;;;;;;;3.50;1.20;;;35.80;85.60;;;;;;5020038;28;20189;-74
2022/07/04 07:26:57;;;;;;;2.67;1.27;;;35.90;84.50;;;;;;5018954;28;20586;-74
2022/07/04 07:29:23;;;;;;;2.03;1.10;;;34.60;86.80;;;;;;5015773;28;20212;-78
2022/07/04 07:31:49;;;;;;;1.15;0.90;;;33.00;90.10;;;;;;5018232;28;20295;-78
2022/07/04 07:34:14;;;;;;;1.98;0.82;;;30.90;91.90;;;;;;5014977;28;20232;-72
2022/07/04 07:36:40;;;;;;;2.17;0.88;;;29.60;93.90;;;;;;5011016;28;20460;-73
2022/07/04 07:39:06;;;;;;;2.45;1.70;;;28.90;95.50;;;;;;5011397;28;20173;-72
2022/07/04 07:41:32;;;;;;;2.10;1.58;;;27.90;98.10;;;;;;5018709;28;20231;-81
2022/07/04 07:43:57;;;;;;;2.10;1.27;;;27.10;99.70;;;;;;5016598;28;20212;-75
2022/07/04 07:46:23;;;;;;;1.20;0.80;;;26.80;99.90;;;;;;5009125;28;20586;-75
2022/07/04 07:48:49;;;;;;;1.67;0.80;;;26.20;99.90;;;;;;5010751;28;20191;-75
2022/07/04 07:51:16;;;;;;;1.77;1.00;;;26.40;99.90;;;;;;5011806;28;20185;-75
2022/07/04 07:53:42;;;;;;;1.77;0.88;;;26.40;99.90;;;;;;5011033;28;20239;-75
2022/07/04 07:56:07;;;;;;;1.77;1.30;;;26.20;99.90;;;;;;5009720;28;20201;-74
2022/07/04 07:58:33;;;;;;;3.67;0.90;;;26.40;99.90;;;;;;5011005;28;20778;-75
2022/07/04 08:00:59;;;;;;;1.67;0.82;;;26.60;99.90;;;;;;5011233;28;20216;-75
2022/07/04 08:06:10;;;;;;;3.03;0.82;;;27.10;99.80;;;;;;5011909;28;20215;-75
2022/07/04 08:08:35;;;;;;;3.75;0.90;;;27.80;99.30;;;;;;5014764;28;20252;-76
2022/07/04 08:11:02;;;;;;;2.00;0.88;;;27.80;98.20;;;;;;5013965;28;20224;-75
2022/07/04 08:13:27;;;;;;;2.35;0.85;;;27.90;98.20;;;;;;5010595;28;20241;-79
2022/07/04 08:15:53;;;;;;;1.90;1.40;;;27.90;97.90;;;;;;5005280;28;20585;-77
2022/07/04 08:18:18;;;;;;;1.15;1.00;;;27.50;98.50;;;;;;5014774;28;20177;-76
2022/07/04 08:20:44;;;;;;;3.13;0.70;;;28.20;98.80;;;;;;5002769;28;20205;-78
2022/07/04 08:23:10;;;;;;;2.10;0.80;;;29.90;97.20;;;;;;5018234;28;20235;-80
2022/07/04 08:25:36;;;;;;;2.97;0.77;;;31.50;95.00;;;;;;5028076;28;20208;-77
2022/07/04 08:28:01;;;;;;;6.00;3.42;;;32.40;94.00;;;;;;5010780;28;20595;-77
2022/07/04 08:30:27;;;;;;;4.15;1.80;;;33.70;92.50;;;;;;5011775;28;20184;-77
2022/07/04 08:32:53;;;;;;;4.45;1.25;;;34.50;90.90;;;;;;5010966;28;20362;-76
2022/07/04 08:35:18;;;;;;;1.83;1.05;;;34.00;90.30;;;;;;5014772;28;20215;-71
2022/07/04 08:37:44;;;;;;;2.22;1.30;;;33.80;88.90;;;;;;5012983;28;20690;-71
2022/07/04 08:40:10;;;;;;;5.05;2.38;;;32.50;90.00;;;;;;5011725;28;20219;-71
2022/07/04 08:42:38;;;;;;;5.30;1.13;;;32.90;90.60;;;;;;5010588;28;20712;-71
2022/07/04 08:45:05;;;;;;;1.63;1.00;;;33.20;90.50;;;;;;5014662;28;20748;-71
2022/07/04 08:47:34;;;;;;;3.03;1.20;;;33.20;90.80;;;;;;5008581;28;20208;-72
2022/07/04 08:50:21;;;;;;;2.78;1.02;;;33.10;91.00;;;;;;5009245;28;20686;-71
2022/07/04 08:53:05;;;;;;;2.33;1.25;;;33.10;90.70;;;;;;5009437;28;20342;-72
2022/07/04 08:58:26;;;;;;;2.35;1.20;;;31.00;92.50;;;;;;5010720;28;20677;-71
2022/07/04 09:00:54;;;;;;;3.05;0.95;;;30.40;93.40;;;;;;5009614;28;20216;-72
2022/07/04 09:03:21;;;;;;;1.80;0.90;;;30.40;94.40;;;;;;5010906;28;20209;-73
2022/07/04 09:05:47;;;;;;;3.85;0.90;;;30.90;93.90;;;;;;5001401;28;20204;-73
2022/07/04 09:08:12;;;;;;;1.42;1.00;;;31.60;92.90;;;;;;5009256;28;20292;-72
2022/07/04 09:10:38;;;;;;;3.92;0.80;;;32.10;92.40;;;;;;5011757;28;20200;-73
2022/07/04 09:13:06;;;;;;;2.10;0.80;;;32.10;91.60;;;;;;5009979;28;20634;-73
2022/07/04 09:15:32;;;;;;;4.15;1.55;;;32.00;90.70;;;;;;5014555;28;20236;-72
2022/07/04 09:17:59;;;;;;;2.08;1.30;;;31.80;90.40;;;;;;5015053;28;20243;-72
2022/07/04 09:20:27;;;;;;;6.97;2.15;;;32.10;90.80;;;;;;5013922;28;20231;-72
2022/07/04 09:22:54;;;;;;;9.90;2.40;;;32.20;91.80;;;;;;5015210;28;20275;-72
2022/07/04 09:25:21;;;;;;;1.55;1.00;;;32.30;92.70;;;;;;5013902;28;20217;-73
2022/07/04 09:27:56;;;;;;;3.45;1.27;;;31.90;91.00;;;;;;5011867;28;20181;-79
2022/07/04 09:30:24;;;;;;;2.55;0.90;;;31.80;91.70;;;;;;5020474;28;20222;-78
2022/07/04 09:33:05;;;;;;;2.03;1.10;;;31.70;89.70;;;;;;5024561;28;20224;-78
2022/07/04 09:35:34;;;;;;;2.35;1.02;;;31.40;90.30;;;;;;5019049;28;20209;-77
2022/07/04 09:38:04;;;;;;;1.63;0.90;;;31.10;90.50;;;;;;5022150;28;20220;-76
2022/07/04 09:40:32;;;;;;;2.03;0.95;;;31.00;91.40;;;;;;5021273;28;20251;-74
2022/07/04 09:43:10;;;;;;;2.67;1.10;;;30.70;91.80;;;;;;5020391;28;20674;-72
2022/07/04 09:45:52;;;;;;;2.38;1.20;;;30.30;92.40;;;;;;5030615;28;20181;-72
2022/07/04 09:48:17;;;;;;;3.42;1.15;;;30.10;92.90;;;;;;5013477;28;20233;-71
2022/07/04 09:50:43;;;;;;;9.80;5.50;;;30.30;93.00;;;;;;5012446;28;20205;-73
2022/07/04 09:53:09;;;;;;;2.50;1.10;;;30.00;93.30;;;;;;5012775;28;20224;-72
2022/07/04 09:55:39;;;;;;;3.47;1.20;;;29.50;93.60;;;;;;5012029;28;20224;-74
2022/07/04 09:58:09;;;;;;;5.95;3.53;;;29.10;93.40;;;;;;5013963;28;20216;-72
2022/07/04 10:00:37;;;;;;;4.95;2.50;;;29.50;93.50;;;;;;5012246;28;20192;-74
2022/07/04 10:03:24;;;;;;;4.57;1.38;;;29.70;93.20;;;;;;5013712;28;20292;-72
2022/07/04 10:06:17;;;;;;;2.08;1.10;;;29.60;92.20;;;;;;5013513;28;20208;-73
2022/07/04 10:08:44;;;;;;;3.20;1.00;;;28.70;93.00;;;;;;5013030;28;20229;-74
2022/07/04 10:11:11;;;;;;;3.67;0.95;;;28.30;93.00;;;;;;5013165;28;20201;-74
2022/07/04 10:13:38;;;;;;;2.97;1.70;;;28.80;93.40;;;;;;5012881;28;20205;-77
2022/07/04 10:16:04;;;;;;;6.75;2.28;;;29.20;93.00;;;;;;5002140;28;20232;-74
2022/07/04 10:18:30;;;;;;;2.65;2.15;;;29.30;93.30;;;;;;5014861;28;20183;-75
2022/07/04 10:20:56;;;;;;;3.42;1.00;;;29.50;92.60;;;;;;5012610;28;20591;-75
2022/07/04 10:23:23;;;;;;;1.17;0.90;;;29.00;91.90;;;;;;5012235;28;20233;-75
2022/07/04 10:25:51;;;;;;;2.38;1.23;;;28.60;92.30;;;;;;5010127;28;20609;-75
2022/07/04 10:28:18;;;;;;;2.88;0.80;;;28.20;93.40;;;;;;5021312;28;20217;-78
2022/07/04 10:30:48;;;;;;;3.50;1.13;;;28.10;94.00;;;;;;5024207;28;20181;-77
2022/07/04 10:33:15;;;;;;;1.42;0.80;;;28.60;93.50;;;;;;5009953;28;20225;-79
2022/07/04 10:35:53;;;;;;;2.15;0.77;;;28.40;94.00;;;;;;5017738;28;20236;-77
2022/07/04 10:38:20;;;;;;;1.55;1.45;;;28.40;93.70;;;;;;5018242;28;20209;-78
2022/07/04 10:40:48;;;;;;;2.88;1.95;;;28.50;94.00;;;;;;5009274;28;20799;-75
2022/07/04 10:46:13;;;;;;;2.63;1.35;;;28.40;94.30;;;;;;5018233;28;20693;-76
2022/07/04 10:49:06;;;;;;;2.25;0.93;;;28.70;93.90;;;;;;5012879;28;20562;-75
2022/07/04 10:51:52;;;;;;;1.83;1.10;;;29.00;93.50;;;;;;5011852;28;20173;-75
2022/07/04 10:54:19;;;;;;;6.13;0.95;;;28.50;93.60;;;;;;5012389;28;20825;-75
2022/07/04 10:57:08;;;;;;;5.07;1.90;;;29.30;93.60;;;;;;5012003;28;20583;-78
2022/07/04 10:59:34;;;;;;;1.55;1.17;;;28.90;93.20;;;;;;4998082;28;20364;-76
2022/07/04 11:02:09;;;;;;;4.13;2.50;;;28.60;93.60;;;;;;5011861;28;20277;-75
2022/07/04 11:04:55;;;;;;;3.45;1.67;;;28.90;94.20;;;;;;5010851;28;20594;-79
2022/07/04 11:07:29;;;;;;;3.58;1.50;;;28.60;94.20;;;;;;5012360;28;20263;-79
2022/07/04 11:10:16;;;;;;;1.48;1.20;;;28.60;94.80;;;;;;5012425;28;20211;-74
2022/07/04 11:12:54;;;;;;;2.78;1.40;;;28.50;94.80;;;;;;5011443;28;20743;-72
2022/07/04 11:15:28;;;;;;;2.78;1.45;;;28.50;94.90;;;;;;5010744;28;20189;-74
2022/07/04 11:18:08;;;;;;;1.10;0.85;;;28.60;94.60;;;;;;5003026;28;20204;-78
2022/07/04 11:20:36;;;;;;;3.08;1.15;;;27.80;95.30;;;;;;5011600;28;20209;-76
2022/07/04 11:23:12;;;;;;;4.53;0.95;;;27.50;95.90;;;;;;5011539;28;20231;-77
2022/07/04 11:25:39;;;;;;;4.15;1.52;;;27.40;96.30;;;;;;5012302;28;20223;-76
2022/07/04 11:28:25;;;;;;;3.25;1.23;;;27.40;96.20;;;;;;5011512;28;20584;-78
2022/07/04 11:30:52;;;;;;;2.60;1.50;;;28.00;96.10;;;;;;5010258;28;20560;-77
2022/07/04 11:33:22;;;;;;;3.70;1.20;;;28.10;95.00;;;;;;5011093;28;20299;-76
2022/07/04 11:36:07;;;;;;;2.60;1.27;;;28.60;94.90;;;;;;5035007;28;20847;-74
2022/07/04 11:38:48;;;;;;;3.45;1.23;;;29.00;94.50;;;;;;5010043;28;20216;-75
2022/07/04 11:46:47;;;;;;;3.22;1.20;;;27.80;95.40;;;;;;5011106;28;20773;-79
2022/07/04 11:49:12;;;;;;;1.05;0.90;;;28.40;95.20;;;;;;5015798;28;20289;-78
2022/07/04 11:51:42;;;;;;;2.47;0.85;;;28.60;94.60;;;;;;5010390;28;20212;-77
2022/07/04 11:54:09;;;;;;;2.58;1.23;;;28.60;94.40;;;;;;5012505;28;20177;-77
2022/07/04 11:56:34;;;;;;;4.22;1.13;;;28.40;94.70;;;;;;5018524;28;20253;-77
2022/07/04 11:59:15;;;;;;;2.10;1.70;;;28.70;94.90;;;;;;5011041;28;20221;-76
2022/07/04 12:01:42;;;;;;;2.60;1.27;;;28.60;94.90;;;;;;5011904;28;20247;-74
2022/07/04 12:04:12;;;;;;;5.65;1.40;;;28.20;95.00;;;;;;5019965;28;20698;-77
2022/07/04 12:06:38;;;;;;;2.85;2.05;;;27.80;95.20;;;;;;5011783;28;20263;-73
2022/07/04 12:09:04;;;;;;;3.80;1.15;;;27.80;95.40;;;;;;5040138;28;20173;-79
2022/07/04 12:11:57;;;;;;;3.22;1.02;;;27.90;95.10;;;;;;5011988;28;20255;-74
2022/07/04 12:14:23;;;;;;;2.22;1.30;;;27.60;94.80;;;;;;5011706;28;20248;-76
2022/07/04 12:16:49;;;;;;;2.40;1.05;;;27.60;95.10;;;;;;5011750;28;20205;-79
2022/07/04 12:19:14;;;;;;;2.83;0.75;;;27.60;94.40;;;;;;5012279;28;20255;-76
2022/07/04 12:21:43;;;;;;;1.63;0.82;;;27.00;95.00;;;;;;5011060;28;22284;-77
2022/07/04 12:24:09;;;;;;;2.40;1.10;;;27.50;94.90;;;;;;5011863;28;20230;-75
2022/07/04 12:26:46;;;;;;;3.35;2.58;;;27.80;94.20;;;;;;5010717;28;20305;-75
2022/07/04 12:29:23;;;;;;;1.77;0.80;;;27.80;93.80;;;;;;5011081;28;20217;-75
2022/07/04 12:34:23;;;;;;;2.22;0.98;;;27.60;94.10;;;;;;5032928;28;20234;-75
2022/07/04 12:36:49;;;;;;;3.05;1.65;;;27.90;93.80;;;;;;5030206;28;20185;-76
2022/07/04 12:39:32;;;;;;;2.00;0.80;;;27.90;93.80;;;;;;5029830;28;20284;-75
2022/07/04 12:42:19;;;;;;;1.92;1.08;;;27.60;92.70;;;;;;5032072;28;20231;-80
2022/07/04 12:44:49;;;;;;;1.48;0.60;;;27.50;91.80;;;;;;5021307;28;20211;-75
2022/07/04 12:47:15;;;;;;;2.35;1.00;;;27.60;92.30;;;;;;5038656;28;20208;-74
2022/07/04 12:49:46;;;;;;;6.00;1.40;;;27.70;92.70;;;;;;5033386;28;20231;-76
2022/07/04 12:52:16;;;;;;;2.50;0.80;;;27.40;92.60;;;;;;5017855;28;20220;-72
2022/07/04 12:54:46;;;;;;;1.27;0.93;;;27.50;93.00;;;;;;5033849;28;20176;-72
2022/07/04 12:57:14;;;;;;;3.58;1.00;;;27.40;92.90;;;;;;5016517;28;20184;-72
2022/07/04 12:59:41;;;;;;;2.20;0.75;;;27.50;93.40;;;;;;5015576;28;20211;-74
2022/07/04 13:02:08;;;;;;;1.90;0.93;;;27.30;93.20;;;;;;5033670;28;20220;-73
2022/07/04 13:04:35;;;;;;;2.08;1.27;;;27.30;92.50;;;;;;5015671;28;20212;-71
2022/07/04 13:07:14;;;;;;;2.50;1.77;;;26.80;92.60;;;;;;5033526;28;20223;-73
2022/07/04 13:09:41;;;;;;;1.60;1.05;;;26.80;93.60;;;;;;5032960;28;20187;-72
2022/07/04 13:12:25;;;;;;;1.95;0.80;;;27.10;93.70;;;;;;5016223;28;20247;-72
2022/07/04 13:14:51;;;;;;;0.70;0.63;;;27.00;93.10;;;;;;5033365;28;20255;-72
2022/07/04 13:17:18;;;;;;;1.25;0.82;;;26.90;93.50;;;;;;5033214;28;20295;-72